Time;durP1;ratioP1;P1;durP2;ratioP2;P2;SDS_P1;SDS_P2;PMS_P1;PMS_P2;Temp;Humidity;BMP_temperature;BMP_pressure;BME280_temperature;BME280_humidity;BME280_pressure;Samples;Min_cycle;Max_cycle;Signal;HPM_P1;HPM_P2
2022/11/30 00:02:12;;;;;;;33.90;11.88;;;;;;;4.96;100.00;101864.84;6222192;28;20064;-70
2022/11/30 00:05:14;;;;;;;39.95;12.02;;;;;;;4.97;100.00;101866.56;6222076;28;20053;-69
2022/11/30 00:08:17;;;;;;;34.65;12.27;;;;;;;4.95;100.00;101876.16;6222215;28;20524;-69
2022/11/30 00:11:19;;;;;;;43.95;13.15;;;;;;;4.92;100.00;101870.09;6221789;28;20049;-69
2022/11/30 00:14:21;;;;;;;36.53;12.52;;;;;;;4.92;100.00;101873.56;6221984;28;20057;-69
2022/11/30 00:17:22;;;;;;;38.08;12.10;;;;;;;4.96;100.00;101882.22;6222060;28;20057;-69
2022/11/30 00:20:24;;;;;;;45.83;12.88;;;;;;;4.93;100.00;101877.03;6221823;28;20046;-69
2022/11/30 00:23:31;;;;;;;31.95;12.38;;;;;;;4.97;100.00;101873.50;6222229;28;20049;-69
2022/11/30 00:26:32;;;;;;;38.45;12.07;;;;;;;4.91;100.00;101874.47;6221500;28;20057;-68
2022/11/30 00:29:34;;;;;;;30.98;10.65;;;;;;;4.96;100.00;101864.00;6221750;28;20418;-69
2022/11/30 00:32:35;;;;;;;42.28;11.77;;;;;;;5.00;100.00;101873.50;6221415;28;20050;-69
2022/11/30 00:35:37;;;;;;;36.50;11.25;;;;;;;4.98;100.00;101877.84;6221684;28;20053;-68
2022/11/30 00:38:40;;;;;;;24.85;10.55;;;;;;;5.00;100.00;101876.94;6221768;28;20049;-69
2022/11/30 00:41:41;;;;;;;30.90;10.88;;;;;;;4.94;100.00;101870.94;6221826;28;20050;-69
2022/11/30 00:44:42;;;;;;;34.85;10.88;;;;;;;4.96;100.00;101872.66;6221249;28;20058;-69
2022/11/30 00:47:44;;;;;;;39.00;12.68;;;;;;;4.90;100.00;101872.72;6222056;28;20054;-70
2022/11/30 00:50:45;;;;;;;32.45;11.15;;;;;;;4.96;100.00;101870.06;6221167;28;20057;-69
2022/11/30 00:53:48;;;;;;;34.40;10.13;;;;;;;4.93;100.00;101867.47;6221227;28;20050;-69
2022/11/30 00:56:50;;;;;;;36.67;11.60;;;;;;;4.93;100.00;101864.88;6221810;28;20053;-69
2022/11/30 00:59:51;;;;;;;29.95;11.43;;;;;;;4.94;100.00;101870.94;6221002;28;20050;-69
2022/11/30 01:02:54;;;;;;;34.00;11.02;;;;;;;4.93;100.00;101862.25;6221619;28;20058;-70
2022/11/30 01:05:55;;;;;;;34.80;12.02;;;;;;;4.92;100.00;101870.97;6221054;28;20050;-69
2022/11/30 01:08:59;;;;;;;32.00;11.20;;;;;;;4.94;100.00;101873.53;6221663;28;20198;-69
2022/11/30 01:12:00;;;;;;;36.13;13.48;;;;;;;4.94;100.00;101877.00;6225622;28;20528;-69
2022/11/30 01:15:02;;;;;;;38.22;10.38;;;;;;;4.98;100.00;101883.91;6225799;28;20046;-69
2022/11/30 01:18:03;;;;;;;29.40;10.55;;;;;;;4.92;100.00;101888.34;6225832;28;20406;-70
2022/11/30 01:21:06;;;;;;;41.58;11.68;;;;;;;4.90;100.00;101890.94;6225677;28;20085;-69
2022/11/30 01:24:10;;;;;;;48.03;13.20;;;;;;;4.90;100.00;101892.69;6225310;28;20050;-69
2022/11/30 01:27:11;;;;;;;43.22;14.18;;;;;;;4.94;100.00;101889.16;6226024;28;20047;-70
2022/11/30 01:30:13;;;;;;;33.20;12.20;;;;;;;4.94;100.00;101892.63;6225176;28;20053;-69
2022/11/30 01:33:14;;;;;;;36.28;11.60;;;;;;;4.86;100.00;101893.59;6225622;28;20049;-69
2022/11/30 01:36:18;;;;;;;35.45;12.05;;;;;;;4.86;100.00;101899.69;6225020;28;20421;-69
2022/11/30 01:39:21;;;;;;;41.95;12.02;;;;;;;4.79;100.00;101893.69;6225311;28;20054;-69
2022/11/30 01:42:23;;;;;;;38.75;12.90;;;;;;;4.79;100.00;101900.63;6225475;28;20529;-69
2022/11/30 01:45:24;;;;;;;38.90;11.88;;;;;;;4.83;100.00;101899.72;6224889;28;20500;-69
2022/11/30 01:48:26;;;;;;;30.17;11.88;;;;;;;4.83;100.00;101907.53;6225221;28;20413;-69
2022/11/30 01:51:33;;;;;;;40.60;10.82;;;;;;;4.77;100.00;101905.88;6224840;28;20064;-69
2022/11/30 01:54:41;;;;;;;44.17;12.35;;;;;;;4.81;100.00;101902.34;6225019;28;20057;-69
2022/11/30 01:57:46;;;;;;;31.30;11.20;;;;;;;4.83;100.00;101897.13;6224941;28;20057;-70
2022/11/30 02:00:48;;;;;;;37.88;11.38;;;;;;;4.76;100.00;101900.66;6224931;28;20049;-69
2022/11/30 02:03:55;;;;;;;35.25;11.20;;;;;;;4.67;100.00;101899.00;6224523;28;20057;-70
2022/11/30 02:06:58;;;;;;;34.20;12.65;;;;;;;4.61;100.00;101890.41;6225163;28;20049;-69
2022/11/30 02:10:01;;;;;;;29.33;11.38;;;;;;;4.68;100.00;101895.56;6224626;28;20051;-69
2022/11/30 02:13:21;;;;;;;29.30;10.35;;;;;;;4.73;100.00;101892.91;6224974;28;20054;-70
2022/11/30 02:16:28;;;;;;;28.60;9.88;;;;;;;4.74;100.00;101900.69;6224218;28;20053;-69
2022/11/30 02:20:06;;;;;;;40.55;12.57;;;;;;;4.73;100.00;101900.72;6224792;28;20049;-70
2022/11/30 02:23:27;;;;;;;30.23;10.75;;;;;;;4.77;100.00;101903.25;6223390;28;20072;-70
2022/11/30 02:26:42;;;;;;;29.83;10.85;;;;;;;4.72;100.00;101896.34;6224114;28;20057;-69
2022/11/30 02:29:48;;;;;;;33.97;11.10;;;;;;;4.75;100.00;101902.41;6224084;28;20057;-71
2022/11/30 02:32:55;;;;;;;27.80;10.10;;;;;;;4.72;100.00;101902.41;6224252;28;20057;-70
2022/11/30 02:35:59;;;;;;;30.00;10.55;;;;;;;4.71;100.00;101902.44;6224021;28;20061;-69
2022/11/30 02:39:00;;;;;;;38.15;9.32;;;;;;;4.77;100.00;101902.41;6223915;28;20046;-69
2022/11/30 02:42:02;;;;;;;28.35;10.13;;;;;;;4.79;100.00;101905.84;6223199;28;20505;-70
2022/11/30 02:45:06;;;;;;;29.63;10.50;;;;;;;4.79;100.00;101913.66;6223701;28;20054;-69
2022/11/30 02:48:10;;;;;;;26.50;9.80;;;;;;;4.82;100.00;101906.69;6223795;28;20057;-69
2022/11/30 02:51:15;;;;;;;22.85;8.23;;;;;;;4.87;100.00;101916.19;6223820;28;20053;-70
2022/11/30 02:54:18;;;;;;;25.20;9.85;;;;;;;4.82;100.00;101914.50;6223321;28;20054;-68
2022/11/30 02:57:19;;;;;;;35.33;8.70;;;;;;;4.79;100.00;101918.84;6223728;28;20053;-70
2022/11/30 03:00:22;;;;;;;19.88;8.93;;;;;;;4.79;100.00;101911.03;6223129;28;20054;-69
2022/11/30 03:03:24;;;;;;;26.15;8.95;;;;;;;4.75;100.00;101915.41;6223806;28;20054;-69
2022/11/30 03:06:25;;;;;;;25.98;9.68;;;;;;;4.76;100.00;101913.69;6222958;28;20425;-70
2022/11/30 03:09:27;;;;;;;27.77;10.07;;;;;;;4.79;100.00;101911.03;6223710;28;20050;-70
2022/11/30 03:12:29;;;;;;;26.60;9.82;;;;;;;4.76;100.00;101906.72;6223775;28;20050;-69
2022/11/30 03:15:31;;;;;;;33.20;9.95;;;;;;;4.75;100.00;101912.81;6236258;28;20045;-69
2022/11/30 03:18:33;;;;;;;39.80;9.93;;;;;;;4.69;100.00;101917.25;6247551;28;20445;-69
2022/11/30 03:21:34;;;;;;;29.52;10.52;;;;;;;4.68;100.00;101920.69;6247243;28;20056;-69
2022/11/30 03:24:36;;;;;;;22.92;8.70;;;;;;;4.70;100.00;101924.16;6247309;28;20053;-69
2022/11/30 03:27:37;;;;;;;24.80;9.43;;;;;;;4.71;100.00;101923.28;6247518;28;20046;-68
2022/11/30 03:30:40;;;;;;;19.63;8.10;;;;;;;4.74;100.00;101923.25;6247264;28;20049;-69
2022/11/30 03:33:41;;;;;;;34.42;9.30;;;;;;;4.70;100.00;101925.03;6243097;28;20041;-71
2022/11/30 03:36:43;;;;;;;19.95;8.77;;;;;;;4.68;100.00;101926.78;6238209;28;20056;-68
2022/11/30 03:39:44;;;;;;;23.98;7.93;;;;;;;4.72;100.00;101927.59;6231886;28;20049;-69
2022/11/30 03:42:46;;;;;;;22.20;7.50;;;;;;;4.75;100.00;101928.44;6234179;28;20048;-70
2022/11/30 03:45:48;;;;;;;21.38;7.43;;;;;;;4.75;100.00;101938.84;6234446;28;20038;-69
2022/11/30 03:48:50;;;;;;;25.50;8.25;;;;;;;4.69;100.00;101936.31;6233610;28;20547;-71
2022/11/30 03:51:51;;;;;;;17.10;7.60;;;;;;;4.69;100.00;101938.06;6246636;28;20060;-69
2022/11/30 03:54:53;;;;;;;21.05;8.63;;;;;;;4.66;100.00;101945.91;6246882;28;20054;-70
2022/11/30 03:57:54;;;;;;;25.25;9.68;;;;;;;4.69;100.00;101949.34;6247001;28;20049;-71
2022/11/30 04:01:01;;;;;;;26.48;9.35;;;;;;;4.69;100.00;101946.75;6246335;28;20061;-69
2022/11/30 04:04:03;;;;;;;16.98;6.80;;;;;;;4.75;100.00;101938.00;6246514;28;20049;-70
2022/11/30 04:07:04;;;;;;;16.33;7.80;;;;;;;4.71;100.00;101936.28;6246721;28;20501;-70
2022/11/30 04:10:07;;;;;;;18.13;8.13;;;;;;;4.69;100.00;101940.66;6246516;28;20049;-70
2022/11/30 04:13:08;;;;;;;18.88;7.57;;;;;;;4.72;100.00;101943.22;6246788;28;20057;-70
2022/11/30 04:16:11;;;;;;;26.77;8.85;;;;;;;4.73;100.00;101940.63;6246441;28;20068;-70
2022/11/30 04:19:13;;;;;;;29.75;10.35;;;;;;;4.69;100.00;101951.09;6246523;28;20058;-70
2022/11/30 04:22:14;;;;;;;25.00;8.48;;;;;;;4.66;100.00;101959.78;6246604;28;20057;-70
2022/11/30 04:25:16;;;;;;;30.15;11.18;;;;;;;4.71;100.00;101957.97;6246069;28;20064;-70
2022/11/30 04:28:18;;;;;;;27.05;10.52;;;;;;;4.69;100.00;101959.75;6246391;28;20416;-70
2022/11/30 04:31:21;;;;;;;29.30;10.82;;;;;;;4.58;100.00;101954.63;6246191;28;20049;-70
2022/11/30 04:34:22;;;;;;;27.00;9.52;;;;;;;4.67;100.00;101952.81;6246091;28;20049;-69
2022/11/30 04:37:24;;;;;;;35.67;9.93;;;;;;;4.62;100.00;101947.66;6246652;28;20045;-70
2022/11/30 04:40:25;;;;;;;26.88;10.07;;;;;;;4.57;100.00;101957.25;6245763;28;20049;-69
2022/11/30 04:43:26;;;;;;;30.55;11.48;;;;;;;4.62;100.00;101950.25;6246576;28;20046;-69
2022/11/30 04:46:29;;;;;;;27.90;9.13;;;;;;;4.67;100.00;101942.41;6250294;28;20068;-70
2022/11/30 04:49:31;;;;;;;31.30;11.40;;;;;;;4.67;100.00;101955.44;6251406;28;20050;-70
2022/11/30 04:52:32;;;;;;;26.73;9.90;;;;;;;4.67;100.00;101958.03;6250800;28;20390;-69
2022/11/30 04:55:34;;;;;;;31.45;11.60;;;;;;;4.67;100.00;101963.25;6250946;28;20049;-69
2022/11/30 04:58:37;;;;;;;29.00;10.40;;;;;;;4.66;100.00;101964.97;6250945;28;20497;-69
2022/11/30 05:01:40;;;;;;;31.15;9.52;;;;;;;4.61;100.00;101964.16;6250810;28;20455;-70
2022/11/30 05:04:41;;;;;;;28.33;10.63;;;;;;;4.62;100.00;101972.84;6250619;28;20050;-70
2022/11/30 05:07:43;;;;;;;25.08;9.32;;;;;;;4.57;100.00;101971.13;6250947;28;20111;-70
2022/11/30 05:10:44;;;;;;;35.13;10.93;;;;;;;4.62;100.00;101971.09;6250337;28;20448;-70
2022/11/30 05:13:45;;;;;;;30.95;9.52;;;;;;;4.64;100.00;101969.34;6250397;28;20049;-70
2022/11/30 05:16:49;;;;;;;28.20;10.80;;;;;;;4.65;100.00;101965.00;6244238;28;20053;-70
2022/11/30 05:19:50;;;;;;;31.98;11.00;;;;;;;4.61;100.00;101982.38;6234902;28;20050;-70
2022/11/30 05:22:52;;;;;;;32.40;10.15;;;;;;;4.67;100.00;101984.06;6237887;28;20072;-70
2022/11/30 05:25:53;;;;;;;27.30;9.90;;;;;;;4.60;100.00;101988.47;6235018;28;20045;-70
2022/11/30 05:28:55;;;;;;;31.73;10.95;;;;;;;4.60;100.00;101987.63;6237211;28;20049;-69
2022/11/30 05:31:58;;;;;;;34.20;10.07;;;;;;;4.66;100.00;101988.41;6235419;28;20050;-69
2022/11/30 05:34:59;;;;;;;33.70;10.05;;;;;;;4.62;100.00;102001.47;6236211;28;20045;-70
2022/11/30 05:38:01;;;;;;;21.17;10.07;;;;;;;4.55;100.00;101988.53;6248395;28;20046;-69
2022/11/30 05:41:02;;;;;;;31.75;10.13;;;;;;;4.62;100.00;101998.88;6249992;28;20049;-70
2022/11/30 05:44:05;;;;;;;36.53;10.70;;;;;;;4.65;100.00;101997.09;6249626;28;20049;-70
2022/11/30 05:47:07;;;;;;;29.40;11.10;;;;;;;4.65;100.00;101994.50;6249806;28;20052;-70
2022/11/30 05:50:09;;;;;;;29.45;11.20;;;;;;;4.62;100.00;101996.25;6249653;28;20551;-70
2022/11/30 05:53:11;;;;;;;31.55;9.45;;;;;;;4.66;100.00;101996.22;6249698;28;20055;-69
2022/11/30 05:56:14;;;;;;;31.90;9.70;;;;;;;4.70;100.00;102000.53;6249212;28;20049;-70
2022/11/30 05:59:15;;;;;;;39.17;12.30;;;;;;;4.65;100.00;102002.31;6249537;28;20520;-70
2022/11/30 06:02:18;;;;;;;29.50;10.80;;;;;;;4.65;100.00;102009.25;6249519;28;20064;-69
2022/11/30 06:05:19;;;;;;;36.60;11.32;;;;;;;4.65;100.00;102004.91;6249130;28;20052;-70
2022/11/30 06:08:21;;;;;;;32.45;11.15;;;;;;;4.65;100.00;102004.91;6249634;28;20061;-70
2022/11/30 06:11:23;;;;;;;42.22;10.75;;;;;;;4.66;100.00;102004.03;6248892;28;20417;-71
2022/11/30 06:14:24;;;;;;;41.08;12.15;;;;;;;4.66;100.00;102014.44;6233036;28;20061;-70
2022/11/30 06:17:27;;;;;;;39.00;10.52;;;;;;;4.59;100.00;102015.41;6224955;28;20056;-70
2022/11/30 06:20:28;;;;;;;38.60;12.07;;;;;;;4.55;100.00;102014.56;6224139;28;20050;-71
2022/11/30 06:23:30;;;;;;;25.60;10.27;;;;;;;4.53;100.00;102018.03;6224777;28;20069;-69
2022/11/30 06:26:32;;;;;;;29.45;9.65;;;;;;;4.46;100.00;102021.56;6224042;28;20057;-70
2022/11/30 06:29:33;;;;;;;31.25;10.32;;;;;;;4.56;100.00;102021.47;6224412;28;20057;-70
2022/11/30 06:32:36;;;;;;;32.33;9.27;;;;;;;4.56;100.00;102026.69;6223870;28;20417;-70
2022/11/30 06:35:37;;;;;;;27.55;8.93;;;;;;;4.54;100.00;102030.16;6224056;28;20050;-70
2022/11/30 06:38:39;;;;;;;31.40;9.27;;;;;;;4.51;100.00;102031.06;6223885;28;20053;-70
2022/11/30 06:41:40;;;;;;;25.10;9.52;;;;;;;4.56;100.00;102031.88;6223937;28;20061;-70
2022/11/30 06:44:41;;;;;;;27.20;9.10;;;;;;;4.60;100.00;102034.47;6223712;28;20055;-70
2022/11/30 06:47:44;;;;;;;27.35;8.90;;;;;;;4.65;100.00;102040.50;6224113;28;20050;-71
2022/11/30 06:50:45;;;;;;;28.65;9.05;;;;;;;4.62;100.00;102037.91;6223563;28;20054;-71
2022/11/30 06:53:48;;;;;;;27.77;8.65;;;;;;;4.58;100.00;102037.94;6223367;28;20591;-71
2022/11/30 06:56:49;;;;;;;28.15;8.18;;;;;;;4.57;100.00;102050.97;6224161;28;20050;-69
2022/11/30 06:59:51;;;;;;;26.65;9.00;;;;;;;4.53;100.00;102050.13;6223161;28;20129;-70
2022/11/30 07:02:54;;;;;;;26.45;9.23;;;;;;;4.58;100.00;102050.09;6223902;28;20057;-70
2022/11/30 07:05:55;;;;;;;23.58;8.68;;;;;;;4.58;100.00;102055.28;6223029;28;20402;-70
2022/11/30 07:08:56;;;;;;;21.88;8.43;;;;;;;4.60;100.00;102052.69;6222974;28;20049;-70
2022/11/30 07:11:58;;;;;;;23.17;8.15;;;;;;;4.57;100.00;102061.38;6223121;28;20085;-70
2022/11/30 07:14:59;;;;;;;32.28;9.02;;;;;;;4.62;100.00;102058.75;6223271;28;20049;-70
2022/11/30 07:18:02;;;;;;;21.10;9.27;;;;;;;4.57;100.00;102067.44;6223541;28;20053;-70
2022/11/30 07:21:05;;;;;;;30.10;10.63;;;;;;;4.58;100.00;102063.97;6223076;28;20057;-71
2022/11/30 07:27:25;;;;;;;;;;;;;;;4.59;100.00;102072.66;6223759;28;20049;-70
2022/11/30 07:30:27;;;;;;;29.02;8.45;;;;;;;4.55;100.00;102069.22;6222515;28;19927;-71
2022/11/30 07:33:31;;;;;;;32.78;9.20;;;;;;;4.61;100.00;102067.44;6223203;28;20057;-70
2022/11/30 07:36:33;;;;;;;29.15;9.85;;;;;;;4.56;100.00;102078.75;6222753;28;20410;-70
2022/11/30 07:39:34;;;;;;;33.58;11.35;;;;;;;4.60;100.00;102081.34;6222669;28;20075;-70
2022/11/30 07:42:36;;;;;;;23.20;9.07;;;;;;;4.59;100.00;102090.91;6222403;28;20053;-70
2022/11/30 07:45:37;;;;;;;37.50;12.07;;;;;;;4.61;100.00;102086.53;6222213;28;20053;-72
2022/11/30 07:48:40;;;;;;;29.17;10.25;;;;;;;4.60;100.00;102082.19;6222832;28;20073;-70
2022/11/30 07:51:41;;;;;;;27.55;9.55;;;;;;;4.65;100.00;102083.03;6222244;28;20112;-72
2022/11/30 07:54:43;;;;;;;32.05;11.05;;;;;;;4.65;100.00;102085.63;6222248;28;20054;-70
2022/11/30 07:57:44;;;;;;;34.17;11.00;;;;;;;4.54;100.00;102095.25;6222544;28;20053;-71
2022/11/30 08:00:46;;;;;;;26.60;8.75;;;;;;;4.61;100.00;102090.88;6222258;28;20050;-71
2022/11/30 08:03:48;;;;;;;29.02;9.77;;;;;;;4.64;100.00;102101.28;6222014;28;20061;-70
2022/11/30 08:06:50;;;;;;;25.23;9.02;;;;;;;4.58;100.00;102096.94;6222518;28;20050;-73
2022/11/30 08:09:51;;;;;;;31.60;11.18;;;;;;;4.65;100.00;102096.03;6225678;28;20425;-70
2022/11/30 08:12:53;;;;;;;27.38;9.63;;;;;;;4.64;100.00;102104.75;6238267;28;20045;-71
2022/11/30 08:15:54;;;;;;;26.08;9.65;;;;;;;4.65;100.00;102106.47;6229919;28;20057;-71
2022/11/30 08:18:58;;;;;;;28.20;10.00;;;;;;;4.68;100.00;102110.75;6241584;28;20072;-72
2022/11/30 08:21:59;;;;;;;27.17;9.15;;;;;;;4.66;100.00;102110.78;6240887;28;20060;-72
2022/11/30 08:25:01;;;;;;;28.92;9.85;;;;;;;4.70;100.00;102114.25;6243617;28;20049;-72
2022/11/30 08:28:03;;;;;;;28.20;9.35;;;;;;;4.68;100.00;102114.25;6222276;28;20058;-71
2022/11/30 08:31:07;;;;;;;39.70;10.20;;;;;;;4.68;100.00;102126.38;6222062;28;20053;-71
2022/11/30 08:34:12;;;;;;;29.60;9.77;;;;;;;4.67;100.00;102125.53;6237971;28;20053;-72
2022/11/30 08:37:14;;;;;;;28.33;10.93;;;;;;;4.72;100.00;102121.16;6246206;28;20118;-71
2022/11/30 08:40:15;;;;;;;31.88;9.75;;;;;;;4.73;100.00;102125.50;6246304;28;20053;-72
2022/11/30 08:43:17;;;;;;;34.17;10.98;;;;;;;4.79;100.00;102122.84;6243219;28;20053;-71
2022/11/30 08:46:20;;;;;;;26.25;9.70;;;;;;;4.65;100.00;102124.69;6237541;28;20497;-72
2022/11/30 08:49:23;;;;;;;38.15;12.48;;;;;;;4.73;100.00;102127.25;6237818;28;20077;-72
2022/11/30 08:52:24;;;;;;;27.17;10.07;;;;;;;4.74;100.00;102134.19;6264570;22;20457;-71
2022/11/30 08:55:26;;;;;;;34.67;11.00;;;;;;;4.70;100.00;102130.72;6215281;28;20054;-71
2022/11/30 08:58:30;;;;;;;27.10;11.50;;;;;;;4.78;100.00;102136.75;6197456;28;20054;-73
2022/11/30 09:01:32;;;;;;;33.53;10.43;;;;;;;4.87;100.00;102137.56;6218173;28;20054;-72
2022/11/30 09:04:35;;;;;;;28.65;10.90;;;;;;;4.87;100.00;102138.44;6221586;28;20065;-71
2022/11/30 09:07:36;;;;;;;32.17;10.48;;;;;;;4.89;100.00;102144.47;6221490;28;20416;-71
2022/11/30 09:10:38;;;;;;;36.17;11.15;;;;;;;4.88;100.00;102140.16;6221573;28;20054;-72
2022/11/30 09:13:40;;;;;;;31.60;10.60;;;;;;;4.92;100.00;102152.28;6221403;28;20048;-72
2022/11/30 09:16:41;;;;;;;30.42;11.20;;;;;;;4.91;100.00;102147.94;6221800;28;20049;-71
2022/11/30 09:19:44;;;;;;;36.53;11.38;;;;;;;5.00;100.00;102147.88;6220973;28;20053;-71
2022/11/30 09:22:46;;;;;;;31.50;11.43;;;;;;;4.97;100.00;102147.03;6221563;28;20060;-71
2022/11/30 09:25:55;;;;;;;34.80;12.00;;;;;;;4.97;100.00;102150.50;6221444;28;20054;-72
2022/11/30 09:28:56;;;;;;;38.28;12.02;;;;;;;5.03;100.00;102154.78;6221452;28;20046;-72
2022/11/30 09:31:57;;;;;;;27.30;10.55;;;;;;;5.06;100.00;102154.78;6224336;28;20054;-73
2022/11/30 09:35:00;;;;;;;41.80;12.38;;;;;;;5.06;100.00;102152.16;6225607;28;20073;-72
2022/11/30 09:38:02;;;;;;;35.80;11.32;;;;;;;5.09;100.00;102152.16;6225461;28;20417;-72
2022/11/30 09:41:14;;;;;;;45.33;12.35;;;;;;;5.11;100.00;102155.59;6225462;28;20096;-72
2022/11/30 09:44:25;;;;;;;32.30;10.75;;;;;;;4.99;100.00;102155.69;6225445;28;20054;-72
2022/11/30 09:47:41;;;;;;;34.08;10.38;;;;;;;5.00;100.00;102153.09;6225687;28;20046;-72
2022/11/30 09:50:47;;;;;;;36.60;12.25;;;;;;;5.04;100.00;102151.31;6224846;28;20416;-71
2022/11/30 09:53:54;;;;;;;41.45;12.30;;;;;;;5.09;100.00;102150.41;6225077;28;20429;-72
2022/11/30 09:56:56;;;;;;;39.33;12.55;;;;;;;5.10;100.00;102151.28;6224816;28;20506;-72
2022/11/30 09:59:59;;;;;;;37.10;11.93;;;;;;;5.15;100.00;102159.06;6225464;28;20093;-71
2022/11/30 10:03:04;;;;;;;43.10;14.82;;;;;;;5.23;100.00;102154.66;6224326;28;20065;-71
2022/11/30 10:06:11;;;;;;;40.13;16.55;;;;;;;5.26;100.00;102146.78;6231643;28;20133;-73
2022/11/30 10:09:27;;;;;;;33.67;12.13;;;;;;;5.17;100.00;102150.31;6236141;28;20045;-72
2022/11/30 10:12:34;;;;;;;43.58;13.15;;;;;;;5.15;100.00;102151.25;6246176;28;20455;-72
2022/11/30 10:15:48;;;;;;;36.63;12.48;;;;;;;5.22;100.00;102159.00;6247454;28;20053;-72
2022/11/30 10:19:00;;;;;;;34.53;11.57;;;;;;;5.29;100.00;102147.63;6248042;28;20053;-72
2022/11/30 10:22:14;;;;;;;35.20;11.82;;;;;;;5.24;100.00;102152.03;6247703;28;20045;-72
2022/11/30 10:25:21;;;;;;;36.75;11.70;;;;;;;5.32;100.00;102152.81;6248021;28;20053;-72
2022/11/30 10:28:33;;;;;;;34.30;10.45;;;;;;;5.42;100.00;102148.38;6249137;28;20072;-71
2022/11/30 10:31:37;;;;;;;33.95;10.02;;;;;;;5.44;100.00;102140.53;6249169;28;20057;-72
2022/11/30 10:34:42;;;;;;;37.05;10.27;;;;;;;5.41;100.00;102141.44;6248845;28;20045;-72
2022/11/30 10:37:46;;;;;;;35.17;11.73;;;;;;;5.51;100.00;102137.00;6249121;28;20057;-72
2022/11/30 10:40:53;;;;;;;32.58;12.13;;;;;;;5.56;100.00;102140.44;6248622;28;20056;-72
2022/11/30 10:44:00;;;;;;;43.22;12.63;;;;;;;5.42;100.00;102137.97;6247688;28;20053;-72
2022/11/30 10:47:06;;;;;;;45.03;12.18;;;;;;;5.45;100.00;102137.94;6248525;28;20083;-71
2022/11/30 10:50:14;;;;;;;35.25;10.82;;;;;;;5.47;100.00;102138.78;6248507;28;20056;-72
2022/11/30 10:53:17;;;;;;;42.20;13.18;;;;;;;5.33;100.00;102136.28;6248447;28;20057;-72
2022/11/30 10:56:18;;;;;;;35.58;10.63;;;;;;;5.38;100.00;102132.78;6248089;28;20508;-72
2022/11/30 10:59:24;;;;;;;35.20;10.73;;;;;;;5.35;100.00;102134.53;6248099;28;20516;-72
2022/11/30 11:02:38;;;;;;;47.05;11.70;;;;;;;5.41;100.00;102133.63;6248134;28;20045;-71
2022/11/30 11:05:40;;;;;;;31.95;11.00;;;;;;;5.42;100.00;102137.09;6247982;28;20180;-72
2022/11/30 11:08:45;;;;;;;45.92;12.77;;;;;;;5.44;100.00;102144.00;6248300;28;20042;-71
2022/11/30 11:11:53;;;;;;;32.25;10.48;;;;;;;5.44;100.00;102135.31;6247872;28;20519;-71
2022/11/30 11:15:08;;;;;;;37.90;10.60;;;;;;;5.49;100.00;102139.59;6247994;28;20061;-72
2022/11/30 11:18:22;;;;;;;42.03;10.23;;;;;;;5.48;100.00;102142.25;6248030;28;20045;-72
2022/11/30 11:21:24;;;;;;;47.22;12.15;;;;;;;5.52;100.00;102143.94;6247800;28;20123;-71
2022/11/30 11:24:28;;;;;;;34.03;11.32;;;;;;;5.47;100.00;102140.53;6237265;28;20050;-72
2022/11/30 11:27:32;;;;;;;36.55;10.27;;;;;;;5.56;100.00;102141.28;6223285;28;20050;-71
2022/11/30 11:30:35;;;;;;;39.92;10.23;;;;;;;5.67;100.00;102145.53;6198742;28;20061;-72
2022/11/30 11:33:36;;;;;;;22.08;8.00;;;;;;;5.81;100.00;102141.91;6213409;28;20049;-71
2022/11/30 11:36:39;;;;;;;29.23;9.35;;;;;;;5.73;100.00;102151.56;6230267;28;20285;-72
2022/11/30 11:39:42;;;;;;;31.70;8.38;;;;;;;5.75;100.00;102152.38;6224265;28;20046;-72
2022/11/30 11:42:47;;;;;;;32.33;10.07;;;;;;;5.72;100.00;102147.22;6239010;28;20060;-72
2022/11/30 11:45:54;;;;;;;25.95;8.82;;;;;;;5.74;100.00;102153.28;6240464;28;20061;-72
2022/11/30 11:48:58;;;;;;;33.35;10.77;;;;;;;5.81;100.00;102147.13;6232450;28;20489;-72
2022/11/30 11:52:01;;;;;;;32.80;11.18;;;;;;;5.81;100.00;102154.06;6238515;28;20049;-72
2022/11/30 11:55:08;;;;;;;47.63;14.38;;;;;;;5.77;100.00;102155.88;6235870;28;20053;-72
2022/11/30 11:58:16;;;;;;;34.90;11.27;;;;;;;5.69;100.00;102154.22;6242936;28;20048;-71
2022/11/30 12:01:37;;;;;;;30.30;10.52;;;;;;;5.67;100.00;102151.59;6233817;28;20054;-71
2022/11/30 12:04:45;;;;;;;35.25;11.55;;;;;;;5.61;100.00;102154.28;6225729;28;20087;-71
2022/11/30 12:07:57;;;;;;;28.20;10.50;;;;;;;5.64;100.00;102158.63;6223836;28;20052;-72
2022/11/30 12:11:04;;;;;;;28.83;11.07;;;;;;;5.67;100.00;102158.56;6198141;28;20053;-71
2022/11/30 12:14:11;;;;;;;37.78;12.48;;;;;;;5.71;100.00;102155.91;6212245;28;20053;-72
2022/11/30 12:17:26;;;;;;;40.78;11.73;;;;;;;5.68;100.00;102163.78;6222177;28;20395;-73
2022/11/30 12:20:35;;;;;;;35.50;11.15;;;;;;;5.70;100.00;102163.75;6221932;28;20054;-71
2022/11/30 12:23:52;;;;;;;35.92;10.77;;;;;;;5.85;100.00;102166.19;6231886;28;20056;-71
2022/11/30 12:26:58;;;;;;;36.58;10.77;;;;;;;5.86;100.00;102167.94;6222173;28;20054;-71
2022/11/30 12:30:08;;;;;;;40.75;12.52;;;;;;;5.85;100.00;102168.81;6221651;28;20509;-72
2022/11/30 12:33:21;;;;;;;35.42;10.65;;;;;;;5.81;100.00;102170.59;6222413;28;20486;-72
2022/11/30 12:36:32;;;;;;;39.75;11.07;;;;;;;5.73;100.00;102168.94;6222014;28;20061;-71
2022/11/30 12:39:44;;;;;;;40.03;12.65;;;;;;;5.60;100.00;102176.03;6208415;28;20414;-72
2022/11/30 12:42:56;;;;;;;50.33;12.85;;;;;;;5.66;100.00;102177.69;6197742;28;20046;-72
2022/11/30 12:46:10;;;;;;;50.95;13.65;;;;;;;5.52;100.00;102168.25;6197362;28;20051;-71
2022/11/30 12:49:39;;;;;;;38.20;11.20;;;;;;;5.56;100.00;102179.53;6197690;28;20057;-72
2022/11/30 12:52:49;;;;;;;45.28;12.75;;;;;;;5.50;100.00;102172.66;6197211;28;20050;-73
2022/11/30 12:56:01;;;;;;;33.28;11.90;;;;;;;5.46;100.00;102180.50;6197450;28;20073;-72
2022/11/30 12:59:14;;;;;;;43.80;10.68;;;;;;;5.54;100.00;102176.97;6197391;28;20057;-71
2022/11/30 13:02:33;;;;;;;41.38;11.90;;;;;;;5.50;100.00;102183.06;6197181;28;20055;-72
2022/11/30 13:05:41;;;;;;;48.05;14.23;;;;;;;5.46;100.00;102178.75;6198422;28;20051;-72
2022/11/30 13:08:51;;;;;;;37.88;13.85;;;;;;;5.48;100.00;102189.16;6201858;28;20065;-72
2022/11/30 13:11:59;;;;;;;35.63;11.60;;;;;;;5.45;100.00;102187.47;6202101;28;20057;-72
2022/11/30 13:15:05;;;;;;;40.75;12.15;;;;;;;5.53;100.00;102180.41;6201606;28;20046;-72
2022/11/30 13:18:07;;;;;;;41.30;13.02;;;;;;;5.56;100.00;102190.84;6202165;28;20054;-72
2022/11/30 13:21:16;;;;;;;31.27;10.07;;;;;;;5.64;100.00;102179.47;6201419;28;20050;-71
2022/11/30 13:24:23;;;;;;;;;;;;;;;5.54;100.00;102190.00;6202323;28;20050;-74
2022/11/30 13:27:29;;;;;;;35.20;10.40;;;;;;;5.50;100.00;102179.59;6201575;28;20387;-76
2022/11/30 13:30:39;;;;;;;46.20;11.73;;;;;;;5.47;100.00;102182.22;6201432;28;20430;-76
2022/11/30 13:33:48;;;;;;;45.70;13.35;;;;;;;5.53;100.00;102187.38;6201640;28;20061;-76
2022/11/30 13:36:51;;;;;;;53.38;15.18;;;;;;;5.45;100.00;102183.97;6201632;28;20184;-76
2022/11/30 13:39:54;;;;;;;40.67;13.10;;;;;;;5.47;100.00;102182.22;6201314;28;20046;-76
2022/11/30 13:42:56;;;;;;;44.60;13.23;;;;;;;5.50;100.00;102192.66;6201416;28;20065;-76
2022/11/30 13:46:15;;;;;;;57.53;14.77;;;;;;;5.47;100.00;102196.13;6201359;28;20050;-76
2022/11/30 13:49:20;;;;;;;53.25;13.18;;;;;;;5.40;100.00;102191.84;6201433;28;20414;-76
2022/11/30 13:52:55;;;;;;;47.67;13.00;;;;;;;5.45;100.00;102192.69;6201333;28;20046;-76
2022/11/30 13:56:13;;;;;;;46.20;14.20;;;;;;;5.40;100.00;102194.44;6204421;28;20449;-76
2022/11/30 13:59:39;;;;;;;54.90;12.57;;;;;;;5.40;100.00;102197.03;6224922;28;20046;-75
2022/11/30 14:02:53;;;;;;;45.58;13.73;;;;;;;5.40;100.00;102199.66;6225355;28;20049;-75
2022/11/30 14:05:56;;;;;;;50.65;15.57;;;;;;;5.32;100.00;102193.66;6225233;28;20058;-76